createdAt,value
2023-03-31T00:03:05.662Z,86.38
2023-03-31T00:08:07.548Z,86.23
2023-03-31T00:13:10.660Z,86.72
2023-03-31T00:18:12.510Z,86.37
2023-03-31T00:23:14.389Z,86.08
2023-03-31T00:28:16.509Z,86.38
2023-03-31T00:33:18.451Z,86.40
2023-03-31T00:38:20.362Z,87.18
2023-03-31T00:43:38.698Z,87.31
2023-03-31T00:48:40.541Z,87.12
2023-03-31T00:53:42.397Z,86.92
2023-03-31T00:58:44.473Z,86.79
2023-03-31T01:03:47.080Z,87.12
2023-03-31T01:08:48.823Z,86.91
2023-03-31T01:13:51.477Z,87.33
2023-03-31T01:18:53.328Z,88.04
2023-03-31T01:24:04.165Z,87.84
2023-03-31T01:29:14.614Z,87.47
2023-03-31T01:34:31.300Z,88.01
2023-03-31T01:40:14.347Z,88.13
2023-03-31T01:45:28.535Z,89.75
2023-03-31T01:50:46.125Z,89.72
2023-03-31T01:55:55.709Z,89.76
2023-03-31T02:01:21.977Z,89.93
2023-03-31T02:06:26.443Z,89.79
2023-03-31T02:11:29.052Z,90.47
2023-03-31T02:16:30.792Z,91.86
2023-03-31T02:21:33.310Z,91.59
2023-03-31T02:26:40.048Z,92.63
2023-03-31T02:31:48.848Z,91.75
2023-03-31T02:36:50.764Z,92.91
2023-03-31T02:41:52.579Z,92.38
2023-03-31T02:46:54.625Z,93.03
2023-03-31T02:52:03.115Z,92.56
2023-03-31T02:57:24.716Z,92.98
2023-03-31T03:02:51.045Z,92.81
2023-03-31T03:08:04.713Z,92.24
2023-03-31T03:13:35.987Z,92.63
2023-03-31T03:18:37.888Z,92.85
2023-03-31T03:23:39.734Z,92.56
2023-03-31T03:28:41.769Z,93.03
2023-03-31T03:33:43.641Z,92.57
2023-03-31T03:38:45.540Z,92.43
2023-03-31T03:43:47.403Z,92.85
2023-03-31T03:48:49.265Z,92.26
2023-03-31T03:53:51.107Z,93.67
2023-03-31T03:58:53.312Z,93.87
2023-03-31T04:03:55.155Z,94.23
2023-03-31T04:08:57.058Z,94.95
2023-03-31T04:13:59.043Z,97.01
2023-03-31T04:19:01.018Z,95.67
2023-03-31T04:24:03.016Z,94.98
2023-03-31T04:29:06.660Z,94.49
2023-03-31T04:34:12.434Z,93.99
2023-03-31T04:39:18.360Z,93.53
2023-03-31T04:44:20.208Z,93.17
2023-03-31T04:49:22.311Z,92.46
2023-03-31T04:54:24.145Z,92.14
2023-03-31T04:59:26.031Z,91.80
2023-03-31T05:04:27.948Z,91.49
2023-03-31T05:09:30.470Z,91.88
2023-03-31T05:14:32.374Z,90.84
2023-03-31T05:19:34.409Z,89.67
2023-03-31T05:24:36.408Z,87.53
2023-03-31T05:29:38.298Z,86.27
2023-03-31T05:34:40.171Z,83.79
2023-03-31T05:39:42.015Z,82.34
2023-03-31T05:44:43.926Z,81.07
2023-03-31T05:49:45.873Z,80.35
2023-03-31T05:54:47.776Z,81.07
2023-03-31T05:59:49.599Z,80.26
2023-03-31T06:04:51.404Z,79.80
2023-03-31T06:09:53.203Z,79.98
2023-03-31T06:14:54.967Z,78.79
2023-03-31T06:19:56.699Z,76.58
2023-03-31T06:24:58.423Z,73.76
2023-03-31T06:30:00.227Z,72.12
2023-03-31T06:35:02.039Z,71.82
2023-03-31T06:40:05.429Z,72.80
2023-03-31T06:45:07.535Z,73.36
2023-03-31T06:50:10.322Z,73.58
2023-03-31T06:55:12.291Z,74.19
2023-03-31T07:00:14.725Z,74.95
2023-03-31T07:05:16.653Z,74.36
2023-03-31T07:10:18.488Z,74.36
2023-03-31T07:15:20.336Z,73.71
2023-03-31T07:20:22.248Z,74.20
2023-03-31T07:25:24.059Z,73.53
2023-03-31T07:30:25.979Z,73.31
2023-03-31T07:35:27.863Z,73.13
2023-03-31T07:40:32.961Z,72.09
2023-03-31T07:45:34.953Z,71.13
2023-03-31T07:50:36.939Z,70.38
2023-03-31T07:55:38.727Z,69.10
2023-03-31T08:00:40.479Z,68.79
2023-03-31T08:05:42.266Z,69.61
2023-03-31T08:10:44.007Z,68.29
2023-03-31T08:15:45.819Z,67.93
2023-03-31T08:20:49.415Z,67.42
2023-03-31T08:25:51.940Z,66.86
2023-03-31T08:30:53.646Z,67.36
2023-03-31T08:35:55.453Z,66.73
2023-03-31T08:41:01.559Z,66.96
2023-03-31T08:46:03.463Z,67.01
2023-03-31T08:51:14.976Z,66.60
2023-03-31T08:56:17.534Z,67.64
2023-03-31T09:01:25.238Z,67.22
2023-03-31T09:06:54.278Z,66.34
2023-03-31T09:11:58.645Z,66.43
2023-03-31T09:17:14.303Z,66.21
2023-03-31T09:22:22.716Z,65.38
2023-03-31T09:27:24.688Z,65.26
2023-03-31T09:32:29.306Z,65.27
2023-03-31T09:37:31.997Z,64.46
2023-03-31T09:42:34.325Z,63.05
2023-03-31T09:47:39.147Z,63.80
2023-03-31T09:52:43.699Z,63.33
2023-03-31T09:57:45.470Z,62.97
2023-03-31T10:02:51.615Z,62.57
2023-03-31T10:08:29.710Z,62.95
2023-03-31T10:13:50.081Z,63.17
2023-03-31T10:18:51.900Z,63.43
2023-03-31T10:23:54.084Z,62.76
2023-03-31T10:28:55.934Z,62.63
2023-03-31T10:33:57.718Z,62.97
2023-03-31T10:38:59.548Z,63.15
2023-03-31T10:44:04.323Z,63.28
2023-03-31T10:49:21.275Z,62.48
2023-03-31T10:54:23.086Z,63.64
2023-03-31T11:00:00.292Z,63.99
2023-03-31T11:05:23.420Z,64.83
2023-03-31T11:10:36.995Z,65.24
2023-03-31T11:16:19.118Z,65.17
2023-03-31T11:21:50.091Z,66.87
2023-03-31T11:27:07.032Z,66.10
2023-03-31T11:32:23.842Z,65.62
2023-03-31T11:37:28.957Z,66.48
2023-03-31T11:43:17.232Z,65.79
2023-03-31T11:48:37.611Z,65.89
2023-03-31T11:53:39.513Z,65.81
2023-03-31T11:58:47.362Z,65.88
2023-03-31T12:03:52.175Z,65.94
2023-03-31T12:09:05.095Z,65.84
2023-03-31T12:14:06.725Z,66.07
2023-03-31T12:19:18.712Z,67.02
2023-03-31T12:24:20.481Z,66.97
2023-03-31T12:29:27.387Z,67.06
2023-03-31T12:34:29.229Z,68.10
2023-03-31T12:39:42.988Z,68.40
2023-03-31T12:45:01.785Z,68.16
2023-03-31T12:50:36.038Z,70.08
2023-03-31T12:55:48.175Z,69.78
2023-03-31T13:01:21.837Z,69.30
2023-03-31T13:06:29.764Z,70.02
2023-03-31T13:11:34.557Z,70.54
2023-03-31T13:16:36.399Z,70.55
2023-03-31T13:21:57.533Z,71.49
2023-03-31T13:27:19.769Z,72.71
2023-03-31T13:32:23.617Z,73.55
2023-03-31T13:37:46.940Z,74.77
2023-03-31T13:42:57.394Z,75.09
2023-03-31T13:48:11.617Z,75.48
2023-03-31T13:53:35.974Z,76.03
2023-03-31T13:58:58.197Z,76.79
2023-03-31T14:04:15.407Z,79.45
2023-03-31T14:09:34.823Z,80.18
2023-03-31T14:14:40.533Z,80.10
2023-03-31T14:20:06.858Z,82.83
2023-03-31T14:25:27.166Z,82.91
2023-03-31T14:30:50.354Z,84.17
2023-03-31T14:36:00.574Z,83.84
2023-03-31T14:41:02.385Z,84.54
2023-03-31T14:46:05.838Z,83.90
2023-03-31T14:51:09.423Z,83.04
2023-03-31T14:56:22.357Z,83.38
2023-03-31T15:01:27.050Z,83.59
2023-03-31T15:06:29.229Z,84.98
2023-03-31T15:11:31.218Z,85.92
2023-03-31T15:16:36.693Z,86.13
2023-03-31T15:21:38.761Z,86.00
2023-03-31T15:26:54.931Z,87.24
2023-03-31T15:31:57.754Z,87.36
2023-03-31T15:37:00.126Z,88.38
2023-03-31T15:42:02.677Z,90.90
2023-03-31T15:47:17.985Z,90.07
2023-03-31T15:52:27.632Z,91.96
2023-03-31T15:57:34.633Z,91.82
2023-03-31T16:02:42.563Z,91.67
2023-03-31T16:07:44.373Z,92.34
2023-03-31T16:12:57.961Z,92.35
2023-03-31T16:18:08.029Z,93.42
2023-03-31T16:23:14.788Z,94.19
2023-03-31T16:28:18.547Z,94.79
2023-03-31T16:33:23.641Z,95.57
2023-03-31T16:38:27.255Z,97.99
2023-03-31T16:43:29.865Z,97.19
2023-03-31T16:48:31.926Z,96.52
2023-03-31T16:53:34.715Z,95.75
2023-03-31T16:58:37.111Z,96.19
2023-03-31T17:03:39.178Z,96.13
2023-03-31T17:08:41.081Z,95.66
2023-03-31T17:13:43.134Z,96.46
2023-03-31T17:18:44.963Z,95.11
2023-03-31T17:23:46.976Z,94.97
2023-03-31T17:28:48.870Z,95.91
2023-03-31T17:33:50.847Z,95.59
2023-03-31T17:38:52.842Z,95.34
2023-03-31T17:43:55.051Z,95.50
2023-03-31T17:48:56.863Z,96.54
2023-03-31T17:53:58.724Z,97.00
2023-03-31T17:59:00.542Z,96.08
2023-03-31T18:04:02.317Z,95.16
2023-03-31T18:09:04.175Z,95.36
2023-03-31T18:14:06.125Z,94.46
2023-03-31T18:19:08.013Z,93.58
2023-03-31T18:24:09.924Z,93.57
2023-03-31T18:29:11.883Z,93.46
2023-03-31T18:34:13.779Z,93.54
2023-03-31T18:39:15.611Z,93.39
2023-03-31T18:44:17.398Z,91.87
2023-03-31T18:49:19.210Z,91.89
2023-03-31T18:54:22.504Z,92.45
2023-03-31T18:59:24.316Z,92.71
2023-03-31T19:04:26.134Z,93.17
2023-03-31T19:09:27.967Z,93.34
2023-03-31T19:14:29.887Z,94.24
2023-03-31T19:19:31.712Z,94.86
2023-03-31T19:24:33.496Z,94.40
2023-03-31T19:29:35.290Z,94.52
2023-03-31T19:34:37.095Z,93.59
2023-03-31T19:39:38.810Z,94.13
2023-03-31T19:44:40.635Z,93.89
2023-03-31T19:49:42.352Z,95.32
2023-03-31T19:54:44.056Z,95.37
2023-03-31T19:59:45.774Z,95.91
2023-03-31T20:04:47.624Z,97.05
2023-03-31T20:09:49.366Z,95.70
2023-03-31T20:14:51.107Z,95.30
2023-03-31T20:19:52.877Z,94.51
2023-03-31T20:24:54.647Z,94.55
2023-03-31T20:29:56.442Z,93.85
2023-03-31T20:34:58.480Z,94.29
2023-03-31T20:40:00.328Z,94.69
2023-03-31T20:45:02.114Z,93.86
2023-03-31T20:50:04.936Z,94.69
2023-03-31T20:55:07.310Z,94.21
2023-03-31T21:00:09.456Z,94.56
2023-03-31T21:05:11.257Z,95.26
2023-03-31T21:10:13.075Z,94.70
2023-03-31T21:15:14.840Z,94.09
2023-03-31T21:20:16.668Z,93.54
2023-03-31T21:25:18.413Z,94.48
2023-03-31T21:30:20.136Z,95.15
2023-03-31T21:35:21.891Z,95.83
2023-03-31T21:40:23.674Z,95.70
2023-03-31T21:45:25.469Z,95.75
2023-03-31T21:50:28.566Z,95.37
2023-03-31T21:55:33.739Z,95.79
2023-03-31T22:00:35.510Z,95.68
2023-03-31T22:05:37.273Z,95.43
2023-03-31T22:10:38.995Z,94.94
2023-03-31T22:15:41.049Z,94.14
2023-03-31T22:20:42.927Z,93.86
2023-03-31T22:25:44.662Z,93.96
2023-03-31T22:30:46.400Z,93.47
2023-03-31T22:35:48.140Z,93.69
2023-03-31T22:40:49.900Z,93.59
2023-03-31T22:45:51.651Z,93.91
2023-03-31T22:50:53.377Z,93.97
2023-03-31T22:55:55.124Z,93.66
2023-03-31T23:01:00.265Z,93.50
2023-03-31T23:06:03.305Z,93.48
2023-03-31T23:11:06.720Z,93.53
2023-03-31T23:16:10.594Z,93.58
2023-03-31T23:21:13.491Z,94.04
2023-03-31T23:26:15.238Z,94.05
2023-03-31T23:31:21.770Z,94.47
2023-03-31T23:36:23.553Z,94.04
2023-03-31T23:41:25.357Z,94.26
2023-03-31T23:46:27.184Z,93.84
2023-03-31T23:51:28.941Z,93.92
2023-03-31T23:56:30.725Z,93.85
